sensor_id;sensor_type;location;lat;lon;timestamp;pressure;altitude;pressure_sealevel;temperature;humidity
3590;BME280;1809;48.470;9.226;2023-04-09T00:00:25;66602.16;;;7.06;100.00
3590;BME280;1809;48.470;9.226;2023-04-09T00:02:50;67270.91;;;7.00;100.00
3590;BME280;1809;48.470;9.226;2023-04-09T00:05:15;68618.56;;;6.98;100.00
3590;BME280;1809;48.470;9.226;2023-04-09T00:07:40;70314.06;;;7.04;100.00
3590;BME280;1809;48.470;9.226;2023-04-09T00:10:06;68955.53;;;6.97;100.00
3590;BME280;1809;48.470;9.226;2023-04-09T00:12:32;69283.47;;;6.89;100.00
3590;BME280;1809;48.470;9.226;2023-04-09T00:14:57;70639.72;;;6.94;100.00
3590;BME280;1809;48.470;9.226;2023-04-09T00:17:22;69962.06;;;6.92;100.00
3590;BME280;1809;48.470;9.226;2023-04-09T00:19:48;70635.09;;;6.90;100.00
3590;BME280;1809;48.470;9.226;2023-04-09T00:22:13;71307.59;;;6.87;100.00
3590;BME280;1809;48.470;9.226;2023-04-09T00:24:39;71642.44;;;6.85;100.00
3590;BME280;1809;48.470;9.226;2023-04-09T00:27:05;72650.50;;;6.80;100.00
3590;BME280;1809;48.470;9.226;2023-04-09T00:29:30;74002.06;;;6.80;100.00
3590;BME280;1809;48.470;9.226;2023-04-09T00:31:56;75691.69;;;6.80;100.00
3590;BME280;1809;48.470;9.226;2023-04-09T00:34:21;76704.34;;;6.78;100.00
3590;BME280;1809;48.470;9.226;2023-04-09T00:36:46;77377.66;;;6.76;100.00
3590;BME280;1809;48.470;9.226;2023-04-09T00:39:12;79413.09;;;6.80;100.00
3590;BME280;1809;48.470;9.226;2023-04-09T00:41:37;79752.91;;;6.81;100.00
3590;BME280;1809;48.470;9.226;2023-04-09T00:44:02;78748.44;;;6.89;100.00
3590;BME280;1809;48.470;9.226;2023-04-09T00:46:28;75356.03;;;6.82;100.00
3590;BME280;1809;48.470;9.226;2023-04-09T00:48:53;74339.44;;;6.80;100.00
3590;BME280;1809;48.470;9.226;2023-04-09T00:51:18;73668.34;;;6.84;100.00
3590;BME280;1809;48.470;9.226;2023-04-09T00:53:44;72662.97;;;6.91;100.00
3590;BME280;1809;48.470;9.226;2023-04-09T00:56:11;70970.47;;;6.88;100.00
3590;BME280;1809;48.470;9.226;2023-04-09T00:58:39;70291.69;;;6.85;100.00
3590;BME280;1809;48.470;9.226;2023-04-09T01:01:05;69948.34;;;6.80;100.00
3590;BME280;1809;48.470;9.226;2023-04-09T01:03:31;69949.50;;;6.81;100.00
3590;BME280;1809;48.470;9.226;2023-04-09T01:06:07;70282.47;;;6.77;100.00
3590;BME280;1809;48.470;9.226;2023-04-09T01:16:23;72652.84;;;6.82;100.00
3590;BME280;1809;48.470;9.226;2023-04-09T01:18:55;70621.22;;;6.78;100.00
3590;BME280;1809;48.470;9.226;2023-04-09T01:21:25;71626.03;;;6.71;100.00
3590;BME280;1809;48.470;9.226;2023-04-09T01:24:13;74335.78;;;6.77;100.00
3590;BME280;1809;48.470;9.226;2023-04-09T01:27:05;74329.72;;;6.72;100.00
3590;BME280;1809;48.470;9.226;2023-04-09T01:29:33;71959.00;;;6.67;100.00
3590;BME280;1809;48.470;9.226;2023-04-09T01:32:01;71963.72;;;6.71;100.00
3590;BME280;1809;48.470;9.226;2023-04-09T01:34:28;72640.41;;;6.72;100.00
3590;BME280;1809;48.470;9.226;2023-04-09T01:36:57;72634.44;;;6.67;100.00
3590;BME280;1809;48.470;9.226;2023-04-09T01:39:24;73982.09;;;6.64;100.00
3590;BME280;1809;48.470;9.226;2023-04-09T01:41:50;74660.34;;;6.66;100.00
3590;BME280;1809;48.470;9.226;2023-04-09T01:44:18;74995.22;;;6.63;100.00
3590;BME280;1809;48.470;9.226;2023-04-09T01:46:46;75681.78;;;6.72;100.00
3590;BME280;1809;48.470;9.226;2023-04-09T01:49:13;75003.22;;;6.70;100.00
3590;BME280;1809;48.470;9.226;2023-04-09T01:51:40;77711.50;;;6.72;100.00
3590;BME280;1809;48.470;9.226;2023-04-09T01:54:06;78054.25;;;6.76;100.00
3590;BME280;1809;48.470;9.226;2023-04-09T01:56:46;77389.09;;;6.85;100.00
3590;BME280;1809;48.470;9.226;2023-04-09T01:59:13;75689.22;;;6.78;100.00
3590;BME280;1809;48.470;9.226;2023-04-09T02:01:54;76367.38;;;6.79;100.00
3590;BME280;1809;48.470;9.226;2023-04-09T02:04:45;76364.25;;;6.77;100.00
3590;BME280;1809;48.470;9.226;2023-04-09T02:07:25;76694.91;;;6.71;100.00
3590;BME280;1809;48.470;9.226;2023-04-09T02:09:53;79398.78;;;6.69;100.00
3590;BME280;1809;48.470;9.226;2023-04-09T02:12:20;79737.88;;;6.69;100.00
3590;BME280;1809;48.470;9.226;2023-04-09T02:14:47;80750.78;;;6.67;100.00
3590;BME280;1809;48.470;9.226;2023-04-09T02:17:15;81092.00;;;6.69;100.00
3590;BME280;1809;48.470;9.226;2023-04-09T02:19:43;81092.66;;;6.70;100.00
3590;BME280;1809;48.470;9.226;2023-04-09T02:22:10;81093.34;;;6.70;100.00
3590;BME280;1809;48.470;9.226;2023-04-09T02:24:36;83463.69;;;6.70;100.00
3590;BME280;1809;48.470;9.226;2023-04-09T02:27:03;84140.06;;;6.69;100.00
3590;BME280;1809;48.470;9.226;2023-04-09T02:29:29;83804.63;;;6.71;100.00
3590;BME280;1809;48.470;9.226;2023-04-09T02:31:55;83807.38;;;6.73;100.00
3590;BME280;1809;48.470;9.226;2023-04-09T02:34:22;82451.41;;;6.73;100.00
3590;BME280;1809;48.470;9.226;2023-04-09T02:36:47;80420.81;;;6.74;100.00
3590;BME280;1809;48.470;9.226;2023-04-09T02:39:13;79061.63;;;6.70;100.00
3590;BME280;1809;48.470;9.226;2023-04-09T02:41:42;79056.47;;;6.66;100.00
3590;BME280;1809;48.470;9.226;2023-04-09T02:44:08;79727.41;;;6.61;100.00
3590;BME280;1809;48.470;9.226;2023-04-09T02:46:34;81758.53;;;6.61;100.00
3590;BME280;1809;48.470;9.226;2023-04-09T02:49:00;83113.97;;;6.62;100.00
3590;BME280;1809;48.470;9.226;2023-04-09T02:51:29;84463.72;;;6.58;100.00
3590;BME280;1809;48.470;9.226;2023-04-09T02:53:54;86157.06;;;6.57;100.00
3590;BME280;1809;48.470;9.226;2023-04-09T02:56:20;86493.97;;;6.55;100.00
3590;BME280;1809;48.470;9.226;2023-04-09T02:58:49;87507.69;;;6.53;100.00
3590;BME280;1809;48.470;9.226;2023-04-09T03:01:19;87509.84;;;6.54;100.00
3590;BME280;1809;48.470;9.226;2023-04-09T03:03:45;86830.91;;;6.54;100.00
3590;BME280;1809;48.470;9.226;2023-04-09T03:06:11;86832.31;;;6.55;100.00
3590;BME280;1809;48.470;9.226;2023-04-09T03:08:40;86151.41;;;6.53;100.00
3590;BME280;1809;48.470;9.226;2023-04-09T03:11:06;85811.72;;;6.52;100.00
3590;BME280;1809;48.470;9.226;2023-04-09T03:13:31;84122.81;;;6.56;100.00
3590;BME280;1809;48.470;9.226;2023-04-09T03:16:00;82767.09;;;6.56;100.00
3590;BME280;1809;48.470;9.226;2023-04-09T03:18:28;79045.44;;;6.57;100.00
3590;BME280;1809;48.470;9.226;2023-04-09T03:20:54;77363.72;;;6.65;100.00
3590;BME280;1809;48.470;9.226;2023-04-09T03:23:20;73301.63;;;6.60;100.00
3590;BME280;1809;48.470;9.226;2023-04-09T03:25:48;69260.84;;;6.69;100.00
3590;BME280;1809;48.470;9.226;2023-04-09T03:28:24;67570.81;;;6.66;100.00
3590;BME280;1809;48.470;9.226;2023-04-09T03:30:49;67572.44;;;6.67;100.00
3590;BME280;1809;48.470;9.226;2023-04-09T03:33:14;64206.28;;;6.72;100.00
3590;BME280;1809;48.470;9.226;2023-04-09T03:35:40;62857.22;;;6.70;100.00
3590;BME280;1809;48.470;9.226;2023-04-09T03:38:05;62851.56;;;6.65;100.00
3590;BME280;1809;48.470;9.226;2023-04-09T03:40:30;63527.25;;;6.67;100.00
3590;BME280;1809;48.470;9.226;2023-04-09T03:42:57;64535.88;;;6.65;100.00
3590;BME280;1809;48.470;9.226;2023-04-09T03:45:22;64869.66;;;6.62;100.00
3590;BME280;1809;48.470;9.226;2023-04-09T03:47:48;65878.53;;;6.60;100.00
3590;BME280;1809;48.470;9.226;2023-04-09T03:50:13;66215.59;;;6.60;100.00
3590;BME280;1809;48.470;9.226;2023-04-09T03:52:38;66887.06;;;6.57;100.00
3590;BME280;1809;48.470;9.226;2023-04-09T03:55:05;68237.56;;;6.59;100.00
3590;BME280;1809;48.470;9.226;2023-04-09T03:57:30;69256.31;;;6.65;100.00
3590;BME280;1809;48.470;9.226;2023-04-09T03:59:56;67574.13;;;6.69;100.00
3590;BME280;1809;48.470;9.226;2023-04-09T04:02:21;65896.25;;;6.76;100.00
3590;BME280;1809;48.470;9.226;2023-04-09T04:04:46;65204.50;;;6.60;100.00
3590;BME280;1809;48.470;9.226;2023-04-09T04:07:12;68905.97;;;6.53;100.00
3590;BME280;1809;48.470;9.226;2023-04-09T04:09:37;72280.16;;;6.53;100.00
3590;BME280;1809;48.470;9.226;2023-04-09T04:12:02;74651.78;;;6.59;100.00
3590;BME280;1809;48.470;9.226;2023-04-09T04:14:28;76677.31;;;6.57;100.00
3590;BME280;1809;48.470;9.226;2023-04-09T04:16:53;78702.63;;;6.54;100.00
3590;BME280;1809;48.470;9.226;2023-04-09T04:19:18;80731.56;;;6.53;100.00
3590;BME280;1809;48.470;9.226;2023-04-09T04:21:44;82075.63;;;6.45;100.00
3590;BME280;1809;48.470;9.226;2023-04-09T04:24:09;84779.66;;;6.41;100.00
3590;BME280;1809;48.470;9.226;2023-04-09T04:26:35;85792.66;;;6.38;100.00
3590;BME280;1809;48.470;9.226;2023-04-09T04:29:00;86469.13;;;6.37;100.00
3590;BME280;1809;48.470;9.226;2023-04-09T04:31:25;87491.88;;;6.41;100.00
3590;BME280;1809;48.470;9.226;2023-04-09T04:33:50;88167.94;;;6.40;100.00
3590;BME280;1809;48.470;9.226;2023-04-09T04:36:16;87481.81;;;6.34;100.00
3590;BME280;1809;48.470;9.226;2023-04-09T04:38:41;88159.97;;;6.34;100.00
3590;BME280;1809;48.470;9.226;2023-04-09T04:41:07;89181.06;;;6.37;100.00
3590;BME280;1809;48.470;9.226;2023-04-09T04:43:32;90878.34;;;6.37;100.00
3590;BME280;1809;48.470;9.226;2023-04-09T04:45:58;91219.22;;;6.38;100.00
3590;BME280;1809;48.470;9.226;2023-04-09T04:48:23;91557.16;;;6.37;100.00
3590;BME280;1809;48.470;9.226;2023-04-09T04:50:56;91560.19;;;6.39;100.00
3590;BME280;1809;48.470;9.226;2023-04-09T04:53:22;91905.72;;;6.43;100.00
3590;BME280;1809;48.470;9.226;2023-04-09T04:55:47;90905.97;;;6.56;100.00
3590;BME280;1809;48.470;9.226;2023-04-09T04:58:12;88870.38;;;6.57;100.00
3590;BME280;1809;48.470;9.226;2023-04-09T05:00:38;87851.19;;;6.56;100.00
3590;BME280;1809;48.470;9.226;2023-04-09T05:03:03;88189.66;;;6.55;100.00
3590;BME280;1809;48.470;9.226;2023-04-09T05:05:28;89222.88;;;6.66;100.00
3590;BME280;1809;48.470;9.226;2023-04-09T05:07:53;89557.84;;;6.63;100.00
3590;BME280;1809;48.470;9.226;2023-04-09T05:10:19;89217.00;;;6.62;100.00
3590;BME280;1809;48.470;9.226;2023-04-09T05:12:44;89566.69;;;6.69;100.00
3590;BME280;1809;48.470;9.226;2023-04-09T05:15:10;88203.44;;;6.65;100.00
3590;BME280;1809;48.470;9.226;2023-04-09T05:17:35;87861.28;;;6.63;100.00
3590;BME280;1809;48.470;9.226;2023-04-09T05:20:00;88542.72;;;6.65;100.00
3590;BME280;1809;48.470;9.226;2023-04-09T05:22:26;88205.63;;;6.66;100.00
3590;BME280;1809;48.470;9.226;2023-04-09T05:24:51;87533.56;;;6.71;100.00
3590;BME280;1809;48.470;9.226;2023-04-09T05:27:17;86182.53;;;6.75;100.00
3590;BME280;1809;48.470;9.226;2023-04-09T05:29:43;81450.66;;;6.84;100.00
3590;BME280;1809;48.470;9.226;2023-04-09T05:32:09;77387.81;;;6.84;100.00
3590;BME280;1809;48.470;9.226;2023-04-09T05:34:34;75028.41;;;6.90;100.00
3590;BME280;1809;48.470;9.226;2023-04-09T05:37:00;75029.03;;;6.91;100.00
3590;BME280;1809;48.470;9.226;2023-04-09T05:39:26;71994.91;;;6.97;100.00
3590;BME280;1809;48.470;9.226;2023-04-09T05:41:51;67954.09;;;7.08;100.00
3590;BME280;1809;48.470;9.226;2023-04-09T05:44:17;61887.25;;;7.11;100.00
3590;BME280;1809;48.470;9.226;2023-04-09T05:46:42;59208.31;;;7.27;100.00
3590;BME280;1809;48.470;9.226;2023-04-09T05:49:08;54498.34;;;7.28;100.00
3590;BME280;1809;48.470;9.226;2023-04-09T05:51:33;49124.31;;;7.31;100.00
3590;BME280;1809;48.470;9.226;2023-04-09T05:53:59;47452.34;;;7.40;100.00
3590;BME280;1809;48.470;9.226;2023-04-09T05:56:25;44436.72;;;7.45;100.00
3590;BME280;1809;48.470;9.226;2023-04-09T05:58:52;39087.38;;;7.66;100.00
3590;BME280;1809;48.470;9.226;2023-04-09T06:01:17;30057.69;;;7.70;100.00
3590;BME280;1809;48.470;9.226;2023-04-09T06:03:42;21716.13;;;7.71;100.00
3590;BME280;1809;48.470;9.226;2023-04-09T06:06:08;11402.53;;;7.78;100.00
3590;BME280;1809;48.470;9.226;2023-04-09T06:08:33;6091.72;;;7.90;100.00
3590;BME280;1809;48.470;9.226;2023-04-09T06:10:59;-8804.63;;;7.89;100.00
3590;BME280;1809;48.470;9.226;2023-04-09T06:13:24;-11570.63;;;7.69;100.00
3590;BME280;1809;48.470;9.226;2023-04-09T06:15:50;-2853.34;;;7.74;100.00
3590;BME280;1809;48.470;9.226;2023-04-09T06:18:16;-7151.13;;;7.76;100.00
3590;BME280;1809;48.470;9.226;2023-04-09T06:20:42;-536.84;;;7.69;100.00
3590;BME280;1809;48.470;9.226;2023-04-09T06:23:07;5426.66;;;7.69;100.00
3590;BME280;1809;48.470;9.226;2023-04-09T06:25:33;7748.75;;;7.69;100.00
3590;BME280;1809;48.470;9.226;2023-04-09T06:27:59;11068.19;;;7.65;100.00
3590;BME280;1809;48.470;9.226;2023-04-09T06:30:24;9741.38;;;7.76;100.00
3590;BME280;1809;48.470;9.226;2023-04-09T06:32:50;-5839.84;;;8.73;100.00
3590;BME280;1809;48.470;9.226;2023-04-09T06:35:15;-16437.84;;;9.64;100.00
3590;BME280;1809;48.470;9.226;2023-04-09T06:37:40;-16457.94;;;10.37;100.00
3590;BME280;1809;48.470;9.226;2023-04-09T06:40:06;-16483.06;;;11.27;100.00
3590;BME280;1809;48.470;9.226;2023-04-09T06:42:32;-16491.75;;;11.58;100.00
3590;BME280;1809;48.470;9.226;2023-04-09T06:44:57;-16498.50;;;11.82;100.00
3590;BME280;1809;48.470;9.226;2023-04-09T06:47:23;-16487.28;;;11.42;100.00
3590;BME280;1809;48.470;9.226;2023-04-09T06:49:48;-16491.47;;;11.57;100.00
3590;BME280;1809;48.470;9.226;2023-04-09T06:52:13;-16499.34;;;11.85;100.00
3590;BME280;1809;48.470;9.226;2023-04-09T06:54:39;-16512.69;;;12.33;100.00
3590;BME280;1809;48.470;9.226;2023-04-09T06:57:05;-16524.88;;;12.77;100.00
3590;BME280;1809;48.470;9.226;2023-04-09T06:59:30;-16537.25;;;13.22;100.00
3590;BME280;1809;48.470;9.226;2023-04-09T07:01:56;-16554.34;;;13.83;100.00
3590;BME280;1809;48.470;9.226;2023-04-09T07:04:21;-16524.31;;;12.75;100.00
3590;BME280;1809;48.470;9.226;2023-04-09T07:06:46;-16543.00;;;13.42;100.00
3590;BME280;1809;48.470;9.226;2023-04-09T07:09:12;-16530.38;;;12.97;100.00
3590;BME280;1809;48.470;9.226;2023-04-09T07:11:37;-16549.44;;;13.66;100.00
3590;BME280;1809;48.470;9.226;2023-04-09T07:14:02;-16535.28;;;13.15;100.00
3590;BME280;1809;48.470;9.226;2023-04-09T07:16:28;-16512.41;;;12.32;100.00
3590;BME280;1809;48.470;9.226;2023-04-09T07:18:53;-16490.78;;;11.55;100.00
3590;BME280;1809;48.470;9.226;2023-04-09T07:21:18;-16470.97;;;10.84;100.00
3590;BME280;1809;48.470;9.226;2023-04-09T07:23:44;-16469.28;;;10.77;100.00
3590;BME280;1809;48.470;9.226;2023-04-09T07:26:10;-16463.81;;;10.58;100.00
3590;BME280;1809;48.470;9.226;2023-04-09T07:28:38;-16449.63;;;10.07;100.00
3590;BME280;1809;48.470;9.226;2023-04-09T07:31:04;-16446.81;;;9.97;100.00
3590;BME280;1809;48.470;9.226;2023-04-09T07:33:30;-16448.50;;;10.03;100.00
3590;BME280;1809;48.470;9.226;2023-04-09T07:35:56;-16453.84;;;10.22;100.00
3590;BME280;1809;48.470;9.226;2023-04-09T07:38:31;-16463.41;;;10.56;100.00
3590;BME280;1809;48.470;9.226;2023-04-09T07:40:57;-16463.69;;;10.57;100.00
3590;BME280;1809;48.470;9.226;2023-04-09T07:43:26;-16462.00;;;10.51;100.00
3590;BME280;1809;48.470;9.226;2023-04-09T07:45:54;-16457.22;;;10.34;100.00
3590;BME280;1809;48.470;9.226;2023-04-09T07:48:20;-16466.50;;;10.67;100.00
3590;BME280;1809;48.470;9.226;2023-04-09T07:50:45;-16467.06;;;10.69;100.00
3590;BME280;1809;48.470;9.226;2023-04-09T07:53:14;-16471.41;;;10.85;100.00
3590;BME280;1809;48.470;9.226;2023-04-09T07:55:41;-16478.00;;;11.09;100.00
3590;BME280;1809;48.470;9.226;2023-04-09T07:58:07;-16490.06;;;11.52;100.00
3590;BME280;1809;48.470;9.226;2023-04-09T08:00:33;-16492.19;;;11.60;100.00
3590;BME280;1809;48.470;9.226;2023-04-09T08:03:01;-16490.91;;;11.55;100.00
3590;BME280;1809;48.470;9.226;2023-04-09T08:05:31;-16501.03;;;11.92;100.00
3590;BME280;1809;48.470;9.226;2023-04-09T08:07:59;-16488.69;;;11.47;100.00
3590;BME280;1809;48.470;9.226;2023-04-09T08:10:25;-16480.53;;;11.18;100.00
3590;BME280;1809;48.470;9.226;2023-04-09T08:12:51;-16474.91;;;10.98;100.00
3590;BME280;1809;48.470;9.226;2023-04-09T08:15:17;-16467.19;;;10.70;100.00
3590;BME280;1809;48.470;9.226;2023-04-09T08:17:42;-16459.59;;;10.43;100.00
3590;BME280;1809;48.470;9.226;2023-04-09T08:20:11;-16457.50;;;10.35;100.00
3590;BME280;1809;48.470;9.226;2023-04-09T08:22:37;-16448.94;;;10.04;100.00
3590;BME280;1809;48.470;9.226;2023-04-09T08:25:06;-16452.16;;;10.16;100.00
3590;BME280;1809;48.470;9.226;2023-04-09T08:27:32;-16463.69;;;10.57;100.00
3590;BME280;1809;48.470;9.226;2023-04-09T08:29:59;-16462.00;;;10.51;100.00
3590;BME280;1809;48.470;9.226;2023-04-09T08:32:28;-16457.22;;;10.34;100.00
3590;BME280;1809;48.470;9.226;2023-04-09T08:34:53;-16450.34;;;10.09;100.00
3590;BME280;1809;48.470;9.226;2023-04-09T08:37:19;-16454.84;;;10.25;100.00
3590;BME280;1809;48.470;9.226;2023-04-09T08:39:45;-16458.19;;;10.38;100.00
3590;BME280;1809;48.470;9.226;2023-04-09T08:42:12;-16460.03;;;10.44;100.00
3590;BME280;1809;48.470;9.226;2023-04-09T08:44:39;-16466.78;;;10.68;100.00
3590;BME280;1809;48.470;9.226;2023-04-09T08:47:08;-16469.28;;;10.77;100.00
3590;BME280;1809;48.470;9.226;2023-04-09T08:49:38;-16480.53;;;11.18;100.00
3590;BME280;1809;48.470;9.226;2023-04-09T08:52:08;-16492.88;;;11.62;100.00
3590;BME280;1809;48.470;9.226;2023-04-09T08:54:33;-16480.66;;;11.18;100.00
3590;BME280;1809;48.470;9.226;2023-04-09T08:57:03;-16462.97;;;10.55;100.00
3590;BME280;1809;48.470;9.226;2023-04-09T08:59:32;-16462.56;;;10.53;100.00
3590;BME280;1809;48.470;9.226;2023-04-09T09:02:12;-16463.41;;;10.56;100.00
3590;BME280;1809;48.470;9.226;2023-04-09T09:04:46;-16469.28;;;10.77;100.00
3590;BME280;1809;48.470;9.226;2023-04-09T09:07:13;-16476.88;;;11.05;100.00
3590;BME280;1809;48.470;9.226;2023-04-09T09:10:00;-16459.31;;;10.42;100.00
3590;BME280;1809;48.470;9.226;2023-04-09T09:12:36;-16457.78;;;10.36;100.00
3590;BME280;1809;48.470;9.226;2023-04-09T09:15:05;-16457.66;;;10.36;100.00
3590;BME280;1809;48.470;9.226;2023-04-09T09:17:31;-16460.44;;;10.46;100.00
3590;BME280;1809;48.470;9.226;2023-04-09T09:20:01;-16456.94;;;10.33;100.00
3590;BME280;1809;48.470;9.226;2023-04-09T09:22:50;-16475.19;;;10.99;100.00
3590;BME280;1809;48.470;9.226;2023-04-09T09:25:15;-16483.91;;;11.30;100.00
3590;BME280;1809;48.470;9.226;2023-04-09T09:27:41;-16494.84;;;11.69;100.00
3590;BME280;1809;48.470;9.226;2023-04-09T09:30:07;-16492.03;;;11.59;100.00
3590;BME280;1809;48.470;9.226;2023-04-09T09:32:35;-16495.97;;;11.73;100.00
3590;BME280;1809;48.470;9.226;2023-04-09T09:35:03;-16496.81;;;11.76;100.00
3590;BME280;1809;48.470;9.226;2023-04-09T09:37:29;-16488.41;;;11.46;100.00
3590;BME280;1809;48.470;9.226;2023-04-09T09:39:55;-16466.78;;;10.68;100.00
3590;BME280;1809;48.470;9.226;2023-04-09T09:42:21;-16467.63;;;10.71;100.00
3590;BME280;1809;48.470;9.226;2023-04-09T09:44:46;-16456.66;;;10.32;100.00
3590;BME280;1809;48.470;9.226;2023-04-09T09:47:13;-16462.28;;;10.52;100.00
3590;BME280;1809;48.470;9.226;2023-04-09T09:49:40;-16460.88;;;10.47;100.00
3590;BME280;1809;48.470;9.226;2023-04-09T09:52:08;-16453.84;;;10.22;100.00
3590;BME280;1809;48.470;9.226;2023-04-09T09:54:41;-16453.00;;;10.19;100.00
3590;BME280;1809;48.470;9.226;2023-04-09T09:57:09;-16449.63;;;10.07;100.00
3590;BME280;1809;48.470;9.226;2023-04-09T09:59:53;-16448.50;;;10.03;100.00
3590;BME280;1809;48.470;9.226;2023-04-09T10:02:22;-16449.06;;;10.05;100.00
3590;BME280;1809;48.470;9.226;2023-04-09T10:04:49;-16452.03;;;10.15;100.00
3590;BME280;1809;48.470;9.226;2023-04-09T10:07:17;-16449.06;;;10.05;100.00
3590;BME280;1809;48.470;9.226;2023-04-09T10:09:48;-16460.72;;;10.47;100.00
3590;BME280;1809;48.470;9.226;2023-04-09T10:12:15;-16471.81;;;10.87;100.00
3590;BME280;1809;48.470;9.226;2023-04-09T10:14:42;-16489.94;;;11.52;100.00
3590;BME280;1809;48.470;9.226;2023-04-09T10:17:07;-16507.50;;;12.15;100.00
3590;BME280;1809;48.470;9.226;2023-04-09T10:19:37;-16505.53;;;12.08;100.00
3590;BME280;1809;48.470;9.226;2023-04-09T10:22:09;-16515.34;;;12.43;100.00
3590;BME280;1809;48.470;9.226;2023-04-09T10:24:36;-16517.03;;;12.49;100.00
3590;BME280;1809;48.470;9.226;2023-04-09T10:27:12;-16517.88;;;12.52;100.00
3590;BME280;1809;48.470;9.226;2023-04-09T10:29:43;-16510.00;;;12.24;100.00
3590;BME280;1809;48.470;9.226;2023-04-09T10:32:09;-16504.69;;;12.05;100.00
3590;BME280;1809;48.470;9.226;2023-04-09T10:34:39;-16510.84;;;12.27;100.00
3590;BME280;1809;48.470;9.226;2023-04-09T10:37:07;-16497.53;;;11.79;100.00
3590;BME280;1809;48.470;9.226;2023-04-09T10:39:38;-16513.09;;;12.35;100.00
3590;BME280;1809;48.470;9.226;2023-04-09T10:42:07;-16501.31;;;11.93;100.00
3590;BME280;1809;48.470;9.226;2023-04-09T10:44:38;-16501.31;;;11.93;100.00
3590;BME280;1809;48.470;9.226;2023-04-09T10:47:07;-16493.72;;;11.65;100.00
3590;BME280;1809;48.470;9.226;2023-04-09T10:49:37;-16488.25;;;11.46;100.00
3590;BME280;1809;48.470;9.226;2023-04-09T10:52:07;-16488.13;;;11.45;100.00
3590;BME280;1809;48.470;9.226;2023-04-09T10:54:41;-16490.22;;;11.53;100.00
3590;BME280;1809;48.470;9.226;2023-04-09T10:59:40;-16486.28;;;11.39;100.00
3590;BME280;1809;48.470;9.226;2023-04-09T11:07:47;-16501.59;;;11.94;100.00
3590;BME280;1809;48.470;9.226;2023-04-09T11:10:16;-16510.44;;;12.25;100.00
3590;BME280;1809;48.470;9.226;2023-04-09T11:12:41;-16511.13;;;12.28;100.00
3590;BME280;1809;48.470;9.226;2023-04-09T11:15:17;-16501.59;;;11.94;100.00
3590;BME280;1809;48.470;9.226;2023-04-09T11:17:44;-16513.25;;;12.35;100.00
3590;BME280;1809;48.470;9.226;2023-04-09T11:20:10;-16522.78;;;12.70;100.00
3590;BME280;1809;48.470;9.226;2023-04-09T11:22:35;-16542.84;;;13.42;100.00
3590;BME280;1809;48.470;9.226;2023-04-09T11:25:02;-16527.69;;;12.87;100.00
3590;BME280;1809;48.470;9.226;2023-04-09T11:27:27;-16526.28;;;12.82;100.00
3590;BME280;1809;48.470;9.226;2023-04-09T11:29:55;-16528.41;;;12.90;100.00
3590;BME280;1809;48.470;9.226;2023-04-09T11:32:21;-16540.31;;;13.33;100.00
3590;BME280;1809;48.470;9.226;2023-04-09T11:34:46;-16514.09;;;12.38;100.00
3590;BME280;1809;48.470;9.226;2023-04-09T11:37:15;-16524.75;;;12.77;100.00
3590;BME280;1809;48.470;9.226;2023-04-09T11:39:44;-16522.78;;;12.70;100.00
3590;BME280;1809;48.470;9.226;2023-04-09T11:42:13;-16522.66;;;12.69;100.00
3590;BME280;1809;48.470;9.226;2023-04-09T11:44:39;-16519.00;;;12.56;100.00
3590;BME280;1809;48.470;9.226;2023-04-09T11:47:05;-16514.50;;;12.40;100.00
3590;BME280;1809;48.470;9.226;2023-04-09T11:49:31;-16521.66;;;12.66;100.00
3590;BME280;1809;48.470;9.226;2023-04-09T11:51:57;-16523.50;;;12.72;100.00
3590;BME280;1809;48.470;9.226;2023-04-09T11:54:30;-16520.81;;;12.63;100.00
3590;BME280;1809;48.470;9.226;2023-04-09T11:56:58;-16517.03;;;12.49;100.00
3590;BME280;1809;48.470;9.226;2023-04-09T11:59:23;-16512.97;;;12.34;100.00
3590;BME280;1809;48.470;9.226;2023-04-09T12:01:50;-16505.66;;;12.08;100.00
3590;BME280;1809;48.470;9.226;2023-04-09T12:04:19;-16507.78;;;12.16;100.00
3590;BME280;1809;48.470;9.226;2023-04-09T12:06:45;-16503.56;;;12.01;100.00
3590;BME280;1809;48.470;9.226;2023-04-09T12:09:10;-16502.84;;;11.98;100.00
3590;BME280;1809;48.470;9.226;2023-04-09T12:11:41;-16510.00;;;12.24;100.00
3590;BME280;1809;48.470;9.226;2023-04-09T12:14:11;-16511.56;;;12.29;100.00
3590;BME280;1809;48.470;9.226;2023-04-09T12:16:37;-16521.81;;;12.66;100.00
3590;BME280;1809;48.470;9.226;2023-04-09T12:19:06;-16534.00;;;13.10;100.00
3590;BME280;1809;48.470;9.226;2023-04-09T12:21:54;-16542.00;;;13.39;100.00
3590;BME280;1809;48.470;9.226;2023-04-09T12:24:22;-16536.81;;;13.20;100.00
3590;BME280;1809;48.470;9.226;2023-04-09T12:26:48;-16530.78;;;12.99;100.00
3590;BME280;1809;48.470;9.226;2023-04-09T12:29:15;-16537.09;;;13.21;100.00
3590;BME280;1809;48.470;9.226;2023-04-09T12:31:42;-16531.63;;;13.02;100.00
3590;BME280;1809;48.470;9.226;2023-04-09T12:34:07;-16536.69;;;13.20;100.00
3590;BME280;1809;48.470;9.226;2023-04-09T12:36:33;-16543.84;;;13.45;99.90
3590;BME280;1809;48.470;9.226;2023-04-09T12:38:58;-16543.97;;;13.46;100.00
3590;BME280;1809;48.470;9.226;2023-04-09T12:41:24;-16551.28;;;13.72;95.25
3590;BME280;1809;48.470;9.226;2023-04-09T12:43:50;-16562.06;;;14.11;94.32
3590;BME280;1809;48.470;9.226;2023-04-09T12:46:17;-16559.41;;;14.01;91.93
3590;BME280;1809;48.470;9.226;2023-04-09T12:48:42;-16556.88;;;13.92;89.22
3590;BME280;1809;48.470;9.226;2023-04-09T12:51:07;-16570.06;;;14.40;87.07
3590;BME280;1809;48.470;9.226;2023-04-09T12:53:35;-16564.31;;;14.19;90.06
3590;BME280;1809;48.470;9.226;2023-04-09T12:56:00;-16569.09;;;14.36;89.08
3590;BME280;1809;48.470;9.226;2023-04-09T12:58:26;-16559.69;;;14.02;91.32
3590;BME280;1809;48.470;9.226;2023-04-09T13:00:51;-16556.59;;;13.91;91.13
3590;BME280;1809;48.470;9.226;2023-04-09T13:03:18;-16561.38;;;14.09;94.33
3590;BME280;1809;48.470;9.226;2023-04-09T13:05:44;-16570.63;;;14.42;92.86
3590;BME280;1809;48.470;9.226;2023-04-09T13:08:09;-16568.53;;;14.34;88.50
3590;BME280;1809;48.470;9.226;2023-04-09T13:10:34;-16555.75;;;13.88;92.44
3590;BME280;1809;48.470;9.226;2023-04-09T13:13:01;-16556.31;;;13.90;80.46
3590;BME280;1809;48.470;9.226;2023-04-09T13:15:26;-16543.41;;;13.44;86.66
3590;BME280;1809;48.470;9.226;2023-04-09T13:17:52;-16531.06;;;13.00;95.82
3590;BME280;1809;48.470;9.226;2023-04-09T13:20:17;-16536.69;;;13.20;95.41
3590;BME280;1809;48.470;9.226;2023-04-09T13:22:43;-16526.56;;;12.83;97.00
3590;BME280;1809;48.470;9.226;2023-04-09T13:25:13;-16522.09;;;12.67;97.47
3590;BME280;1809;48.470;9.226;2023-04-09T13:27:38;-16528.13;;;12.89;98.81